sensor_id;sensor_type;location;lat;lon;timestamp;P1;durP1;ratioP1;P2;durP2;ratioP2
59492;SDS011;45497;43.996;22.876;2023-01-13T00:01:59;11.83;;;8.93;;
59492;SDS011;45497;43.996;22.876;2023-01-13T00:04:25;14.47;;;9.73;;
59492;SDS011;45497;43.996;22.876;2023-01-13T00:06:50;11.83;;;9.37;;
59492;SDS011;45497;43.996;22.876;2023-01-13T00:09:16;11.95;;;9.23;;
59492;SDS011;45497;43.996;22.876;2023-01-13T00:11:41;11.13;;;9.40;;
59492;SDS011;45497;43.996;22.876;2023-01-13T00:14:07;12.13;;;8.77;;
59492;SDS011;45497;43.996;22.876;2023-01-13T00:16:32;11.50;;;8.07;;
59492;SDS011;45497;43.996;22.876;2023-01-13T00:18:58;10.77;;;8.30;;
59492;SDS011;45497;43.996;22.876;2023-01-13T00:21:23;11.00;;;8.13;;
59492;SDS011;45497;43.996;22.876;2023-01-13T00:23:53;9.43;;;7.47;;
59492;SDS011;45497;43.996;22.876;2023-01-13T00:26:20;11.10;;;7.93;;
59492;SDS011;45497;43.996;22.876;2023-01-13T00:28:47;11.00;;;7.85;;
59492;SDS011;45497;43.996;22.876;2023-01-13T00:31:16;11.70;;;8.47;;
59492;SDS011;45497;43.996;22.876;2023-01-13T00:33:43;12.38;;;8.48;;
59492;SDS011;45497;43.996;22.876;2023-01-13T00:36:10;13.50;;;9.05;;
59492;SDS011;45497;43.996;22.876;2023-01-13T00:38:37;13.30;;;8.80;;
59492;SDS011;45497;43.996;22.876;2023-01-13T00:41:04;13.45;;;9.15;;
59492;SDS011;45497;43.996;22.876;2023-01-13T00:43:32;16.67;;;12.10;;
59492;SDS011;45497;43.996;22.876;2023-01-13T00:45:59;18.10;;;12.85;;
59492;SDS011;45497;43.996;22.876;2023-01-13T00:48:26;18.25;;;12.75;;
59492;SDS011;45497;43.996;22.876;2023-01-13T00:51:02;17.20;;;12.47;;
59492;SDS011;45497;43.996;22.876;2023-01-13T00:53:34;19.10;;;13.85;;
59492;SDS011;45497;43.996;22.876;2023-01-13T00:56:01;19.38;;;14.13;;
59492;SDS011;45497;43.996;22.876;2023-01-13T00:58:30;21.35;;;14.75;;
59492;SDS011;45497;43.996;22.876;2023-01-13T01:01:01;22.07;;;14.67;;
59492;SDS011;45497;43.996;22.876;2023-01-13T01:03:28;19.27;;;13.98;;
59492;SDS011;45497;43.996;22.876;2023-01-13T01:05:54;21.40;;;15.80;;
59492;SDS011;45497;43.996;22.876;2023-01-13T01:08:21;21.95;;;15.35;;
59492;SDS011;45497;43.996;22.876;2023-01-13T01:10:46;22.07;;;15.97;;
59492;SDS011;45497;43.996;22.876;2023-01-13T01:13:12;21.87;;;15.13;;
59492;SDS011;45497;43.996;22.876;2023-01-13T01:15:41;21.93;;;15.60;;
59492;SDS011;45497;43.996;22.876;2023-01-13T01:18:07;24.92;;;16.02;;
59492;SDS011;45497;43.996;22.876;2023-01-13T01:20:33;22.20;;;15.13;;
59492;SDS011;45497;43.996;22.876;2023-01-13T01:22:58;20.08;;;15.23;;
59492;SDS011;45497;43.996;22.876;2023-01-13T01:25:24;20.90;;;14.45;;
59492;SDS011;45497;43.996;22.876;2023-01-13T01:27:50;20.70;;;14.90;;
59492;SDS011;45497;43.996;22.876;2023-01-13T01:30:15;21.73;;;15.03;;
59492;SDS011;45497;43.996;22.876;2023-01-13T01:32:41;22.30;;;14.80;;
59492;SDS011;45497;43.996;22.876;2023-01-13T01:35:06;17.57;;;13.57;;
59492;SDS011;45497;43.996;22.876;2023-01-13T01:37:32;20.13;;;14.32;;
59492;SDS011;45497;43.996;22.876;2023-01-13T01:39:58;17.20;;;12.50;;
59492;SDS011;45497;43.996;22.876;2023-01-13T01:42:23;17.63;;;12.87;;
59492;SDS011;45497;43.996;22.876;2023-01-13T01:47:36;17.50;;;11.98;;
59492;SDS011;45497;43.996;22.876;2023-01-13T01:50:02;16.87;;;11.93;;
59492;SDS011;45497;43.996;22.876;2023-01-13T01:52:39;20.83;;;13.45;;
59492;SDS011;45497;43.996;22.876;2023-01-13T01:55:15;18.20;;;12.10;;
59492;SDS011;45497;43.996;22.876;2023-01-13T02:00:34;19.60;;;12.35;;
59492;SDS011;45497;43.996;22.876;2023-01-13T02:03:00;20.80;;;12.35;;
59492;SDS011;45497;43.996;22.876;2023-01-13T02:05:27;19.35;;;11.73;;
59492;SDS011;45497;43.996;22.876;2023-01-13T02:07:53;17.88;;;11.82;;
59492;SDS011;45497;43.996;22.876;2023-01-13T02:10:22;18.27;;;12.73;;
59492;SDS011;45497;43.996;22.876;2023-01-13T02:12:51;15.52;;;11.55;;
59492;SDS011;45497;43.996;22.876;2023-01-13T02:15:26;15.00;;;10.55;;
59492;SDS011;45497;43.996;22.876;2023-01-13T02:21:17;16.40;;;10.77;;
59492;SDS011;45497;43.996;22.876;2023-01-13T02:24:04;15.70;;;11.13;;
59492;SDS011;45497;43.996;22.876;2023-01-13T02:33:02;18.37;;;15.67;;
59492;SDS011;45497;43.996;22.876;2023-01-13T02:35:55;16.00;;;10.25;;
59492;SDS011;45497;43.996;22.876;2023-01-13T02:38:54;18.67;;;10.52;;
59492;SDS011;45497;43.996;22.876;2023-01-13T02:44:12;16.45;;;9.68;;
59492;SDS011;45497;43.996;22.876;2023-01-13T02:49:17;12.30;;;9.13;;
59492;SDS011;45497;43.996;22.876;2023-01-13T02:51:47;15.65;;;11.88;;
59492;SDS011;45497;43.996;22.876;2023-01-13T02:54:17;12.90;;;8.80;;
59492;SDS011;45497;43.996;22.876;2023-01-13T02:56:47;12.95;;;9.43;;
59492;SDS011;45497;43.996;22.876;2023-01-13T02:59:17;13.43;;;9.90;;
59492;SDS011;45497;43.996;22.876;2023-01-13T03:01:44;12.43;;;9.07;;
59492;SDS011;45497;43.996;22.876;2023-01-13T03:04:57;18.70;;;15.80;;
59492;SDS011;45497;43.996;22.876;2023-01-13T03:07:52;14.13;;;8.60;;
59492;SDS011;45497;43.996;22.876;2023-01-13T03:12:43;10.48;;;8.50;;
59492;SDS011;45497;43.996;22.876;2023-01-13T03:15:22;18.35;;;16.30;;
59492;SDS011;45497;43.996;22.876;2023-01-13T03:18:01;13.98;;;11.05;;
59492;SDS011;45497;43.996;22.876;2023-01-13T03:20:33;10.60;;;8.73;;
59492;SDS011;45497;43.996;22.876;2023-01-13T03:23:06;12.18;;;9.48;;
59492;SDS011;45497;43.996;22.876;2023-01-13T03:25:39;11.68;;;9.20;;
59492;SDS011;45497;43.996;22.876;2023-01-13T03:28:15;14.98;;;13.43;;
59492;SDS011;45497;43.996;22.876;2023-01-13T03:30:49;15.05;;;11.70;;
59492;SDS011;45497;43.996;22.876;2023-01-13T03:33:27;10.75;;;8.80;;
59492;SDS011;45497;43.996;22.876;2023-01-13T03:35:58;12.30;;;9.30;;
59492;SDS011;45497;43.996;22.876;2023-01-13T03:38:42;11.07;;;8.85;;
59492;SDS011;45497;43.996;22.876;2023-01-13T03:41:18;11.68;;;8.85;;
59492;SDS011;45497;43.996;22.876;2023-01-13T03:43:53;10.77;;;8.43;;
59492;SDS011;45497;43.996;22.876;2023-01-13T03:50:19;11.50;;;9.63;;
59492;SDS011;45497;43.996;22.876;2023-01-13T03:53:10;12.30;;;9.90;;
59492;SDS011;45497;43.996;22.876;2023-01-13T03:55:43;12.98;;;9.15;;
59492;SDS011;45497;43.996;22.876;2023-01-13T03:58:18;12.52;;;9.50;;
59492;SDS011;45497;43.996;22.876;2023-01-13T04:03:34;12.57;;;10.30;;
59492;SDS011;45497;43.996;22.876;2023-01-13T04:06:14;13.77;;;11.05;;
59492;SDS011;45497;43.996;22.876;2023-01-13T04:08:54;13.63;;;11.35;;
59492;SDS011;45497;43.996;22.876;2023-01-13T04:11:27;13.65;;;10.85;;
59492;SDS011;45497;43.996;22.876;2023-01-13T04:13:56;12.68;;;9.95;;
59492;SDS011;45497;43.996;22.876;2023-01-13T04:16:23;13.77;;;10.35;;
59492;SDS011;45497;43.996;22.876;2023-01-13T04:18:49;13.57;;;9.50;;
59492;SDS011;45497;43.996;22.876;2023-01-13T04:21:15;11.13;;;9.03;;
59492;SDS011;45497;43.996;22.876;2023-01-13T04:23:40;10.77;;;8.20;;
59492;SDS011;45497;43.996;22.876;2023-01-13T04:26:05;10.80;;;8.27;;
59492;SDS011;45497;43.996;22.876;2023-01-13T04:28:31;11.83;;;8.53;;
59492;SDS011;45497;43.996;22.876;2023-01-13T04:30:58;10.20;;;8.02;;
59492;SDS011;45497;43.996;22.876;2023-01-13T04:33:24;10.60;;;8.40;;
59492;SDS011;45497;43.996;22.876;2023-01-13T04:35:49;10.73;;;8.00;;
59492;SDS011;45497;43.996;22.876;2023-01-13T04:38:17;39.20;;;35.75;;
59492;SDS011;45497;43.996;22.876;2023-01-13T04:40:44;15.50;;;13.93;;
59492;SDS011;45497;43.996;22.876;2023-01-13T04:43:10;15.18;;;10.80;;
59492;SDS011;45497;43.996;22.876;2023-01-13T04:45:36;13.98;;;10.65;;
59492;SDS011;45497;43.996;22.876;2023-01-13T04:48:02;15.17;;;10.80;;
59492;SDS011;45497;43.996;22.876;2023-01-13T04:50:27;14.57;;;10.80;;
59492;SDS011;45497;43.996;22.876;2023-01-13T04:52:53;14.88;;;11.00;;
59492;SDS011;45497;43.996;22.876;2023-01-13T04:55:20;15.57;;;11.60;;
59492;SDS011;45497;43.996;22.876;2023-01-13T04:57:46;16.53;;;12.10;;
59492;SDS011;45497;43.996;22.876;2023-01-13T05:00:13;19.23;;;13.13;;
59492;SDS011;45497;43.996;22.876;2023-01-13T05:02:41;18.02;;;13.10;;
59492;SDS011;45497;43.996;22.876;2023-01-13T05:05:06;20.42;;;13.25;;
59492;SDS011;45497;43.996;22.876;2023-01-13T05:07:33;18.40;;;13.40;;
59492;SDS011;45497;43.996;22.876;2023-01-13T05:09:58;18.63;;;13.23;;
59492;SDS011;45497;43.996;22.876;2023-01-13T05:12:24;17.73;;;13.27;;
59492;SDS011;45497;43.996;22.876;2023-01-13T05:15:12;21.90;;;16.98;;
59492;SDS011;45497;43.996;22.876;2023-01-13T05:17:57;17.25;;;14.32;;
59492;SDS011;45497;43.996;22.876;2023-01-13T05:20:23;15.68;;;10.68;;
59492;SDS011;45497;43.996;22.876;2023-01-13T05:22:48;13.30;;;9.50;;
59492;SDS011;45497;43.996;22.876;2023-01-13T05:25:34;13.33;;;10.43;;
59492;SDS011;45497;43.996;22.876;2023-01-13T05:28:03;12.68;;;9.38;;
59492;SDS011;45497;43.996;22.876;2023-01-13T05:30:29;14.77;;;10.13;;
59492;SDS011;45497;43.996;22.876;2023-01-13T05:32:57;11.90;;;9.73;;
59492;SDS011;45497;43.996;22.876;2023-01-13T05:35:23;29.10;;;26.20;;
59492;SDS011;45497;43.996;22.876;2023-01-13T05:37:48;14.37;;;10.00;;
59492;SDS011;45497;43.996;22.876;2023-01-13T05:40:16;14.87;;;10.13;;
59492;SDS011;45497;43.996;22.876;2023-01-13T05:43:05;12.63;;;10.10;;
59492;SDS011;45497;43.996;22.876;2023-01-13T05:45:48;13.18;;;10.05;;
59492;SDS011;45497;43.996;22.876;2023-01-13T05:48:17;14.30;;;9.65;;
59492;SDS011;45497;43.996;22.876;2023-01-13T05:50:44;15.43;;;10.43;;
59492;SDS011;45497;43.996;22.876;2023-01-13T05:53:11;13.07;;;9.88;;
59492;SDS011;45497;43.996;22.876;2023-01-13T05:55:41;13.90;;;10.65;;
59492;SDS011;45497;43.996;22.876;2023-01-13T05:58:07;15.30;;;10.80;;
59492;SDS011;45497;43.996;22.876;2023-01-13T06:00:33;14.37;;;11.07;;
59492;SDS011;45497;43.996;22.876;2023-01-13T06:02:59;13.77;;;10.20;;
59492;SDS011;45497;43.996;22.876;2023-01-13T06:05:24;12.77;;;9.57;;
59492;SDS011;45497;43.996;22.876;2023-01-13T06:07:50;13.47;;;9.50;;
59492;SDS011;45497;43.996;22.876;2023-01-13T06:10:15;13.30;;;9.37;;
59492;SDS011;45497;43.996;22.876;2023-01-13T06:12:41;13.88;;;10.00;;
59492;SDS011;45497;43.996;22.876;2023-01-13T06:15:07;14.95;;;10.45;;
59492;SDS011;45497;43.996;22.876;2023-01-13T06:17:32;13.93;;;10.13;;
59492;SDS011;45497;43.996;22.876;2023-01-13T06:19:58;12.20;;;9.40;;
59492;SDS011;45497;43.996;22.876;2023-01-13T06:22:27;13.67;;;10.20;;
59492;SDS011;45497;43.996;22.876;2023-01-13T06:24:59;11.95;;;9.57;;
59492;SDS011;45497;43.996;22.876;2023-01-13T06:27:26;15.15;;;11.10;;
59492;SDS011;45497;43.996;22.876;2023-01-13T06:29:53;14.57;;;11.13;;
59492;SDS011;45497;43.996;22.876;2023-01-13T06:32:38;14.50;;;10.95;;
59492;SDS011;45497;43.996;22.876;2023-01-13T06:35:10;15.93;;;11.80;;
59492;SDS011;45497;43.996;22.876;2023-01-13T06:37:40;13.98;;;10.93;;
59492;SDS011;45497;43.996;22.876;2023-01-13T06:40:09;16.20;;;12.65;;
59492;SDS011;45497;43.996;22.876;2023-01-13T06:42:38;17.45;;;12.80;;
59492;SDS011;45497;43.996;22.876;2023-01-13T06:45:22;18.00;;;12.52;;
59492;SDS011;45497;43.996;22.876;2023-01-13T06:47:51;19.05;;;13.32;;
59492;SDS011;45497;43.996;22.876;2023-01-13T06:50:16;16.95;;;11.85;;
59492;SDS011;45497;43.996;22.876;2023-01-13T06:52:42;21.10;;;12.82;;
59492;SDS011;45497;43.996;22.876;2023-01-13T06:55:08;19.90;;;13.25;;
59492;SDS011;45497;43.996;22.876;2023-01-13T06:57:34;20.70;;;13.40;;
59492;SDS011;45497;43.996;22.876;2023-01-13T06:59:59;16.45;;;11.23;;
59492;SDS011;45497;43.996;22.876;2023-01-13T07:02:25;18.27;;;11.50;;
59492;SDS011;45497;43.996;22.876;2023-01-13T07:04:52;14.30;;;10.63;;
59492;SDS011;45497;43.996;22.876;2023-01-13T07:07:17;20.40;;;10.67;;
59492;SDS011;45497;43.996;22.876;2023-01-13T07:09:43;16.20;;;10.37;;
59492;SDS011;45497;43.996;22.876;2023-01-13T07:12:08;15.10;;;10.25;;
59492;SDS011;45497;43.996;22.876;2023-01-13T07:14:34;16.33;;;9.73;;
59492;SDS011;45497;43.996;22.876;2023-01-13T07:17:18;13.43;;;9.70;;
59492;SDS011;45497;43.996;22.876;2023-01-13T07:19:49;13.27;;;9.35;;
59492;SDS011;45497;43.996;22.876;2023-01-13T07:22:17;14.20;;;9.82;;
59492;SDS011;45497;43.996;22.876;2023-01-13T07:24:43;14.63;;;9.73;;
59492;SDS011;45497;43.996;22.876;2023-01-13T07:27:08;15.87;;;10.93;;
59492;SDS011;45497;43.996;22.876;2023-01-13T07:29:34;16.90;;;11.20;;
59492;SDS011;45497;43.996;22.876;2023-01-13T07:32:01;19.50;;;11.35;;
59492;SDS011;45497;43.996;22.876;2023-01-13T07:34:26;21.38;;;11.95;;
59492;SDS011;45497;43.996;22.876;2023-01-13T07:36:52;20.55;;;13.00;;
59492;SDS011;45497;43.996;22.876;2023-01-13T07:39:17;24.43;;;12.60;;
59492;SDS011;45497;43.996;22.876;2023-01-13T07:41:43;17.93;;;11.53;;
59492;SDS011;45497;43.996;22.876;2023-01-13T07:44:27;22.13;;;13.02;;
59492;SDS011;45497;43.996;22.876;2023-01-13T07:46:52;26.70;;;16.17;;
59492;SDS011;45497;43.996;22.876;2023-01-13T07:49:18;25.92;;;16.13;;
59492;SDS011;45497;43.996;22.876;2023-01-13T07:51:43;44.30;;;26.53;;
59492;SDS011;45497;43.996;22.876;2023-01-13T07:54:09;43.70;;;26.67;;
59492;SDS011;45497;43.996;22.876;2023-01-13T07:56:34;45.15;;;27.00;;
59492;SDS011;45497;43.996;22.876;2023-01-13T07:59:00;39.90;;;23.77;;
59492;SDS011;45497;43.996;22.876;2023-01-13T08:01:25;43.17;;;26.13;;
59492;SDS011;45497;43.996;22.876;2023-01-13T08:03:52;40.90;;;25.17;;
59492;SDS011;45497;43.996;22.876;2023-01-13T08:06:18;38.20;;;23.13;;
59492;SDS011;45497;43.996;22.876;2023-01-13T08:08:43;38.10;;;23.80;;
59492;SDS011;45497;43.996;22.876;2023-01-13T08:11:09;40.35;;;23.52;;
59492;SDS011;45497;43.996;22.876;2023-01-13T08:13:34;40.27;;;24.20;;
59492;SDS011;45497;43.996;22.876;2023-01-13T08:16:01;41.30;;;23.73;;
59492;SDS011;45497;43.996;22.876;2023-01-13T08:18:31;40.78;;;23.73;;
59492;SDS011;45497;43.996;22.876;2023-01-13T08:21:00;45.00;;;26.70;;
59492;SDS011;45497;43.996;22.876;2023-01-13T08:23:27;45.22;;;22.95;;
59492;SDS011;45497;43.996;22.876;2023-01-13T08:25:53;41.73;;;25.40;;
59492;SDS011;45497;43.996;22.876;2023-01-13T08:28:19;35.03;;;21.30;;
59492;SDS011;45497;43.996;22.876;2023-01-13T08:30:44;43.33;;;25.93;;
59492;SDS011;45497;43.996;22.876;2023-01-13T08:33:11;42.70;;;25.65;;
59492;SDS011;45497;43.996;22.876;2023-01-13T08:35:37;48.30;;;27.23;;
59492;SDS011;45497;43.996;22.876;2023-01-13T08:38:04;48.80;;;27.70;;
59492;SDS011;45497;43.996;22.876;2023-01-13T08:40:30;43.10;;;26.00;;
59492;SDS011;45497;43.996;22.876;2023-01-13T08:42:56;49.30;;;27.02;;
59492;SDS011;45497;43.996;22.876;2023-01-13T08:45:22;51.38;;;28.08;;
59492;SDS011;45497;43.996;22.876;2023-01-13T08:47:48;41.33;;;23.02;;
59492;SDS011;45497;43.996;22.876;2023-01-13T08:50:13;36.00;;;20.13;;
59492;SDS011;45497;43.996;22.876;2023-01-13T08:52:39;32.95;;;17.98;;
59492;SDS011;45497;43.996;22.876;2023-01-13T08:55:05;26.13;;;16.27;;
59492;SDS011;45497;43.996;22.876;2023-01-13T08:57:31;33.97;;;18.10;;
59492;SDS011;45497;43.996;22.876;2023-01-13T08:59:57;32.07;;;18.33;;
59492;SDS011;45497;43.996;22.876;2023-01-13T09:02:23;32.83;;;17.92;;
59492;SDS011;45497;43.996;22.876;2023-01-13T09:04:50;35.70;;;18.40;;
59492;SDS011;45497;43.996;22.876;2023-01-13T09:07:16;31.95;;;17.83;;
59492;SDS011;45497;43.996;22.876;2023-01-13T09:09:42;31.90;;;17.10;;
59492;SDS011;45497;43.996;22.876;2023-01-13T09:12:11;31.75;;;17.05;;
59492;SDS011;45497;43.996;22.876;2023-01-13T09:14:56;33.55;;;17.45;;
59492;SDS011;45497;43.996;22.876;2023-01-13T09:17:22;34.90;;;19.60;;
59492;SDS011;45497;43.996;22.876;2023-01-13T09:19:47;35.70;;;19.33;;
59492;SDS011;45497;43.996;22.876;2023-01-13T09:22:14;40.27;;;20.43;;
59492;SDS011;45497;43.996;22.876;2023-01-13T09:24:41;34.97;;;19.92;;
59492;SDS011;45497;43.996;22.876;2023-01-13T09:27:10;37.97;;;19.77;;
59492;SDS011;45497;43.996;22.876;2023-01-13T09:29:37;36.60;;;19.90;;
59492;SDS011;45497;43.996;22.876;2023-01-13T09:32:03;42.33;;;21.63;;
59492;SDS011;45497;43.996;22.876;2023-01-13T09:34:29;39.72;;;19.98;;
59492;SDS011;45497;43.996;22.876;2023-01-13T09:37:13;34.33;;;18.73;;
59492;SDS011;45497;43.996;22.876;2023-01-13T09:39:39;37.00;;;18.67;;
59492;SDS011;45497;43.996;22.876;2023-01-13T09:48:30;35.67;;;19.17;;
59492;SDS011;45497;43.996;22.876;2023-01-13T09:51:01;26.20;;;15.73;;
59492;SDS011;45497;43.996;22.876;2023-01-13T09:53:37;33.63;;;17.53;;
59492;SDS011;45497;43.996;22.876;2023-01-13T09:56:09;26.20;;;15.15;;
59492;SDS011;45497;43.996;22.876;2023-01-13T09:58:35;26.10;;;13.57;;
59492;SDS011;45497;43.996;22.876;2023-01-13T10:04:02;23.13;;;13.40;;
59492;SDS011;45497;43.996;22.876;2023-01-13T10:06:34;22.30;;;12.82;;
59492;SDS011;45497;43.996;22.876;2023-01-13T10:09:03;25.52;;;13.63;;
59492;SDS011;45497;43.996;22.876;2023-01-13T10:11:35;22.85;;;14.02;;
59492;SDS011;45497;43.996;22.876;2023-01-13T10:15:25;21.77;;;14.18;;
59492;SDS011;45497;43.996;22.876;2023-01-13T10:17:29;22.13;;;13.80;;
59492;SDS011;45497;43.996;22.876;2023-01-13T10:28:37;21.42;;;13.90;;
59492;SDS011;45497;43.996;22.876;2023-01-13T10:31:08;22.17;;;15.03;;
59492;SDS011;45497;43.996;22.876;2023-01-13T10:33:36;21.95;;;14.88;;
59492;SDS011;45497;43.996;22.876;2023-01-13T10:38:39;26.33;;;16.10;;
59492;SDS011;45497;43.996;22.876;2023-01-13T10:43:37;22.67;;;16.15;;
59492;SDS011;45497;43.996;22.876;2023-01-13T10:46:05;25.03;;;16.60;;
59492;SDS011;45497;43.996;22.876;2023-01-13T10:48:37;83.85;;;76.72;;
59492;SDS011;45497;43.996;22.876;2023-01-13T10:51:09;44.55;;;39.85;;
59492;SDS011;45497;43.996;22.876;2023-01-13T10:53:47;27.40;;;19.92;;
59492;SDS011;45497;43.996;22.876;2023-01-13T10:56:16;23.90;;;16.38;;
59492;SDS011;45497;43.996;22.876;2023-01-13T10:58:44;25.33;;;16.52;;
59492;SDS011;45497;43.996;22.876;2023-01-13T11:01:16;33.33;;;29.05;;
59492;SDS011;45497;43.996;22.876;2023-01-13T11:03:49;21.92;;;14.50;;
59492;SDS011;45497;43.996;22.876;2023-01-13T11:06:21;24.23;;;17.83;;
59492;SDS011;45497;43.996;22.876;2023-01-13T11:08:52;26.52;;;19.42;;
59492;SDS011;45497;43.996;22.876;2023-01-13T11:11:43;22.20;;;15.15;;
59492;SDS011;45497;43.996;22.876;2023-01-13T11:14:53;25.02;;;16.80;;
59492;SDS011;45497;43.996;22.876;2023-01-13T11:20:06;26.08;;;17.08;;
59492;SDS011;45497;43.996;22.876;2023-01-13T11:22:42;30.00;;;17.73;;
59492;SDS011;45497;43.996;22.876;2023-01-13T11:25:33;31.50;;;18.45;;
59492;SDS011;45497;43.996;22.876;2023-01-13T11:30:41;32.53;;;20.45;;
59492;SDS011;45497;43.996;22.876;2023-01-13T11:33:16;35.58;;;22.27;;
59492;SDS011;45497;43.996;22.876;2023-01-13T11:38:42;40.60;;;28.08;;
59492;SDS011;45497;43.996;22.876;2023-01-13T11:41:16;40.63;;;25.65;;
59492;SDS011;45497;43.996;22.876;2023-01-13T11:46:26;38.25;;;25.60;;
59492;SDS011;45497;43.996;22.876;2023-01-13T11:48:52;44.10;;;29.33;;
59492;SDS011;45497;43.996;22.876;2023-01-13T11:52:06;52.00;;;31.98;;
59492;SDS011;45497;43.996;22.876;2023-01-13T11:54:34;44.50;;;30.08;;
59492;SDS011;45497;43.996;22.876;2023-01-13T11:57:17;39.80;;;27.17;;
59492;SDS011;45497;43.996;22.876;2023-01-13T12:05:39;28.65;;;18.73;;
59492;SDS011;45497;43.996;22.876;2023-01-13T12:13:49;25.58;;;17.15;;
59492;SDS011;45497;43.996;22.876;2023-01-13T12:16:20;27.27;;;17.02;;
59492;SDS011;45497;43.996;22.876;2023-01-13T12:30:02;38.90;;;34.95;;
59492;SDS011;45497;43.996;22.876;2023-01-13T12:32:51;19.40;;;13.35;;
59492;SDS011;45497;43.996;22.876;2023-01-13T12:35:40;19.30;;;12.88;;
59492;SDS011;45497;43.996;22.876;2023-01-13T12:43:24;19.63;;;12.85;;
59492;SDS011;45497;43.996;22.876;2023-01-13T12:46:54;21.30;;;14.73;;
59492;SDS011;45497;43.996;22.876;2023-01-13T12:56:55;26.33;;;17.95;;
59492;SDS011;45497;43.996;22.876;2023-01-13T13:01:51;20.38;;;14.20;;
59492;SDS011;45497;43.996;22.876;2023-01-13T13:04:43;19.25;;;14.50;;
59492;SDS011;45497;43.996;22.876;2023-01-13T13:07:21;19.05;;;13.10;;
59492;SDS011;45497;43.996;22.876;2023-01-13T13:15:29;20.52;;;14.18;;
59492;SDS011;45497;43.996;22.876;2023-01-13T13:21:06;22.85;;;14.95;;
59492;SDS011;45497;43.996;22.876;2023-01-13T13:26:34;27.27;;;17.93;;
59492;SDS011;45497;43.996;22.876;2023-01-13T13:37:35;20.83;;;13.55;;
59492;SDS011;45497;43.996;22.876;2023-01-13T13:40:23;15.43;;;10.65;;
59492;SDS011;45497;43.996;22.876;2023-01-13T13:43:08;17.57;;;12.53;;
59492;SDS011;45497;43.996;22.876;2023-01-13T13:45:56;16.52;;;11.30;;
59492;SDS011;45497;43.996;22.876;2023-01-13T13:48:48;18.70;;;13.20;;
59492;SDS011;45497;43.996;22.876;2023-01-13T13:51:35;14.73;;;10.60;;
59492;SDS011;45497;43.996;22.876;2023-01-13T13:54:08;16.20;;;12.18;;
59492;SDS011;45497;43.996;22.876;2023-01-13T13:56:37;19.75;;;13.27;;
59492;SDS011;45497;43.996;22.876;2023-01-13T13:59:09;15.35;;;11.05;;
59492;SDS011;45497;43.996;22.876;2023-01-13T14:01:37;22.65;;;16.63;;
59492;SDS011;45497;43.996;22.876;2023-01-13T14:04:06;22.07;;;14.60;;
59492;SDS011;45497;43.996;22.876;2023-01-13T14:06:47;19.67;;;14.00;;
59492;SDS011;45497;43.996;22.876;2023-01-13T14:09:20;15.65;;;11.23;;
59492;SDS011;45497;43.996;22.876;2023-01-13T14:14:20;20.30;;;13.00;;
59492;SDS011;45497;43.996;22.876;2023-01-13T14:16:45;21.33;;;14.07;;
59492;SDS011;45497;43.996;22.876;2023-01-13T14:19:46;19.45;;;13.50;;
59492;SDS011;45497;43.996;22.876;2023-01-13T14:22:11;17.90;;;13.82;;
59492;SDS011;45497;43.996;22.876;2023-01-13T14:24:46;21.53;;;14.13;;
59492;SDS011;45497;43.996;22.876;2023-01-13T14:27:18;22.48;;;14.82;;
59492;SDS011;45497;43.996;22.876;2023-01-13T14:29:44;23.05;;;15.32;;
59492;SDS011;45497;43.996;22.876;2023-01-13T14:32:12;22.90;;;14.52;;
59492;SDS011;45497;43.996;22.876;2023-01-13T14:34:41;19.13;;;13.13;;
59492;SDS011;45497;43.996;22.876;2023-01-13T14:37:23;16.23;;;11.57;;
59492;SDS011;45497;43.996;22.876;2023-01-13T14:39:55;20.43;;;13.73;;
59492;SDS011;45497;43.996;22.876;2023-01-13T14:42:20;19.70;;;14.27;;
59492;SDS011;45497;43.996;22.876;2023-01-13T14:44:47;16.33;;;11.77;;
59492;SDS011;45497;43.996;22.876;2023-01-13T14:47:27;20.10;;;12.63;;
59492;SDS011;45497;43.996;22.876;2023-01-13T14:49:58;19.30;;;13.18;;
59492;SDS011;45497;43.996;22.876;2023-01-13T14:52:28;17.03;;;11.87;;
59492;SDS011;45497;43.996;22.876;2023-01-13T14:57:33;18.95;;;14.07;;
59492;SDS011;45497;43.996;22.876;2023-01-13T15:13:26;25.43;;;17.13;;
59492;SDS011;45497;43.996;22.876;2023-01-13T15:15:58;30.38;;;19.30;;
59492;SDS011;45497;43.996;22.876;2023-01-13T15:18:37;30.95;;;20.45;;
59492;SDS011;45497;43.996;22.876;2023-01-13T15:21:05;35.67;;;23.02;;
59492;SDS011;45497;43.996;22.876;2023-01-13T15:23:31;42.25;;;27.20;;
59492;SDS011;45497;43.996;22.876;2023-01-13T15:25:58;44.80;;;27.23;;
59492;SDS011;45497;43.996;22.876;2023-01-13T15:28:24;29.63;;;20.27;;
59492;SDS011;45497;43.996;22.876;2023-01-13T15:30:51;24.33;;;16.53;;
59492;SDS011;45497;43.996;22.876;2023-01-13T15:33:18;20.33;;;14.57;;
59492;SDS011;45497;43.996;22.876;2023-01-13T15:35:46;18.53;;;12.77;;
59492;SDS011;45497;43.996;22.876;2023-01-13T15:38:15;30.58;;;21.08;;
59492;SDS011;45497;43.996;22.876;2023-01-13T15:40:45;37.13;;;24.80;;
59492;SDS011;45497;43.996;22.876;2023-01-13T15:43:14;32.40;;;20.95;;
59492;SDS011;45497;43.996;22.876;2023-01-13T15:46:02;37.58;;;24.73;;
59492;SDS011;45497;43.996;22.876;2023-01-13T15:49:02;35.50;;;23.15;;
59492;SDS011;45497;43.996;22.876;2023-01-13T15:51:34;29.95;;;20.73;;
59492;SDS011;45497;43.996;22.876;2023-01-13T15:54:00;31.52;;;22.35;;
59492;SDS011;45497;43.996;22.876;2023-01-13T15:56:26;39.10;;;24.92;;
59492;SDS011;45497;43.996;22.876;2023-01-13T15:58:52;38.55;;;25.52;;
59492;SDS011;45497;43.996;22.876;2023-01-13T16:01:18;42.33;;;27.10;;
59492;SDS011;45497;43.996;22.876;2023-01-13T16:03:43;37.97;;;24.20;;
59492;SDS011;45497;43.996;22.876;2023-01-13T16:06:14;33.13;;;22.23;;
59492;SDS011;45497;43.996;22.876;2023-01-13T16:08:42;41.97;;;28.50;;
59492;SDS011;45497;43.996;22.876;2023-01-13T16:11:08;38.30;;;27.23;;
59492;SDS011;45497;43.996;22.876;2023-01-13T16:13:35;33.67;;;22.50;;
59492;SDS011;45497;43.996;22.876;2023-01-13T16:16:01;25.38;;;18.15;;
59492;SDS011;45497;43.996;22.876;2023-01-13T16:18:26;25.63;;;17.60;;
59492;SDS011;45497;43.996;22.876;2023-01-13T16:20:52;32.80;;;21.30;;
59492;SDS011;45497;43.996;22.876;2023-01-13T16:23:19;29.02;;;21.75;;
59492;SDS011;45497;43.996;22.876;2023-01-13T16:25:46;31.25;;;23.08;;
59492;SDS011;45497;43.996;22.876;2023-01-13T16:28:22;33.75;;;24.38;;
59492;SDS011;45497;43.996;22.876;2023-01-13T16:30:50;37.08;;;26.38;;
59492;SDS011;45497;43.996;22.876;2023-01-13T16:33:16;37.33;;;26.23;;
59492;SDS011;45497;43.996;22.876;2023-01-13T16:35:42;42.13;;;27.23;;
59492;SDS011;45497;43.996;22.876;2023-01-13T16:38:25;40.38;;;27.20;;
59492;SDS011;45497;43.996;22.876;2023-01-13T16:40:51;42.85;;;27.98;;
59492;SDS011;45497;43.996;22.876;2023-01-13T16:43:16;34.53;;;25.40;;
59492;SDS011;45497;43.996;22.876;2023-01-13T16:45:42;32.63;;;22.33;;
59492;SDS011;45497;43.996;22.876;2023-01-13T16:48:11;32.10;;;23.70;;
59492;SDS011;45497;43.996;22.876;2023-01-13T16:50:43;37.70;;;24.58;;
59492;SDS011;45497;43.996;22.876;2023-01-13T16:53:09;37.43;;;27.43;;